Congress, Arizona
Current Conditions -  °F | °C
As of 9:53 AM on Sunday 23 Nov 2014 (Local Time) from KPRC Reporting Station
Clear Clear  
Wind Chill: 39°   Ceiling: Unl
Heat Index: 47°   Visibility: 10mi
Dew Point: 13°   Wind: 23mph
Humidity: 25%   Direction: 350°N
Pressure: 30.16"   Gusts: 28mph
Location:  34.16°N, 112.85°W
Report Text: KPRC 231653Z 35020G24KT 10SM CLR 08/M11 A3016 RMK AO2 PK WND 33030/1611 SLP178 T00831106
Loading
Personal Weather Stations






























Interactive Weather Map New forecast layout! Learn more

10-Day Weather Forecast

Advertisements
Track Severe Weather on mobile